sensor_id;sensor_type;location;lat;lon;timestamp;P1;durP1;ratioP1;P2;durP2;ratioP2
21777;SDS011;11050;52.222;20.916;2023-07-02T00:00:08;34.78;;;21.75;;
21777;SDS011;11050;52.222;20.916;2023-07-02T00:02:37;33.60;;;22.70;;
21777;SDS011;11050;52.222;20.916;2023-07-02T00:05:03;34.80;;;21.80;;
21777;SDS011;11050;52.222;20.916;2023-07-02T00:07:30;35.30;;;23.08;;
21777;SDS011;11050;52.222;20.916;2023-07-02T00:09:56;35.03;;;22.30;;
21777;SDS011;11050;52.222;20.916;2023-07-02T00:12:22;38.03;;;23.15;;
21777;SDS011;11050;52.222;20.916;2023-07-02T00:14:47;38.38;;;22.52;;
21777;SDS011;11050;52.222;20.916;2023-07-02T00:17:13;37.47;;;22.35;;
21777;SDS011;11050;52.222;20.916;2023-07-02T00:19:39;35.60;;;23.00;;
21777;SDS011;11050;52.222;20.916;2023-07-02T00:22:07;36.53;;;22.90;;
21777;SDS011;11050;52.222;20.916;2023-07-02T00:24:34;34.65;;;23.83;;
21777;SDS011;11050;52.222;20.916;2023-07-02T00:27:00;35.75;;;23.98;;
21777;SDS011;11050;52.222;20.916;2023-07-02T00:29:26;40.53;;;22.98;;
21777;SDS011;11050;52.222;20.916;2023-07-02T00:31:51;36.22;;;24.17;;
21777;SDS011;11050;52.222;20.916;2023-07-02T00:34:18;35.97;;;24.00;;
21777;SDS011;11050;52.222;20.916;2023-07-02T00:36:44;38.17;;;23.13;;
21777;SDS011;11050;52.222;20.916;2023-07-02T00:39:10;39.33;;;23.83;;
21777;SDS011;11050;52.222;20.916;2023-07-02T00:41:38;34.78;;;24.02;;
21777;SDS011;11050;52.222;20.916;2023-07-02T00:44:05;38.22;;;24.67;;
21777;SDS011;11050;52.222;20.916;2023-07-02T00:46:30;33.75;;;23.58;;
21777;SDS011;11050;52.222;20.916;2023-07-02T00:48:56;37.90;;;24.30;;
21777;SDS011;11050;52.222;20.916;2023-07-02T00:51:26;38.22;;;25.00;;
21777;SDS011;11050;52.222;20.916;2023-07-02T00:53:53;38.05;;;24.67;;
21777;SDS011;11050;52.222;20.916;2023-07-02T00:56:22;33.80;;;22.83;;
21777;SDS011;11050;52.222;20.916;2023-07-02T00:58:52;36.30;;;24.08;;
21777;SDS011;11050;52.222;20.916;2023-07-02T01:01:24;40.20;;;25.00;;
21777;SDS011;11050;52.222;20.916;2023-07-02T01:04:02;38.60;;;25.00;;
21777;SDS011;11050;52.222;20.916;2023-07-02T01:06:33;41.00;;;24.70;;
21777;SDS011;11050;52.222;20.916;2023-07-02T01:09:02;36.42;;;23.10;;
21777;SDS011;11050;52.222;20.916;2023-07-02T01:16:54;36.03;;;24.50;;
21777;SDS011;11050;52.222;20.916;2023-07-02T01:22:17;36.65;;;24.05;;
21777;SDS011;11050;52.222;20.916;2023-07-02T01:24:48;36.42;;;23.77;;
21777;SDS011;11050;52.222;20.916;2023-07-02T01:27:15;38.15;;;24.42;;
21777;SDS011;11050;52.222;20.916;2023-07-02T01:29:41;36.78;;;25.38;;
21777;SDS011;11050;52.222;20.916;2023-07-02T01:32:10;35.50;;;24.17;;
21777;SDS011;11050;52.222;20.916;2023-07-02T01:34:36;34.38;;;24.75;;
21777;SDS011;11050;52.222;20.916;2023-07-02T01:37:02;37.40;;;24.05;;
21777;SDS011;11050;52.222;20.916;2023-07-02T01:39:28;36.63;;;24.00;;
21777;SDS011;11050;52.222;20.916;2023-07-02T01:41:55;35.05;;;24.55;;
21777;SDS011;11050;52.222;20.916;2023-07-02T01:44:37;34.50;;;23.38;;
21777;SDS011;11050;52.222;20.916;2023-07-02T01:47:03;36.85;;;24.35;;
21777;SDS011;11050;52.222;20.916;2023-07-02T01:49:30;33.38;;;23.02;;
21777;SDS011;11050;52.222;20.916;2023-07-02T01:51:57;34.38;;;24.27;;
21777;SDS011;11050;52.222;20.916;2023-07-02T01:54:24;36.17;;;23.52;;
21777;SDS011;11050;52.222;20.916;2023-07-02T01:56:55;34.13;;;23.60;;
21777;SDS011;11050;52.222;20.916;2023-07-02T01:59:21;34.03;;;23.13;;
21777;SDS011;11050;52.222;20.916;2023-07-02T02:01:47;36.15;;;23.45;;
21777;SDS011;11050;52.222;20.916;2023-07-02T02:04:13;34.20;;;23.10;;
21777;SDS011;11050;52.222;20.916;2023-07-02T02:06:40;33.70;;;23.45;;
21777;SDS011;11050;52.222;20.916;2023-07-02T02:09:06;34.00;;;23.48;;
21777;SDS011;11050;52.222;20.916;2023-07-02T02:11:34;34.92;;;23.90;;
21777;SDS011;11050;52.222;20.916;2023-07-02T02:14:04;34.85;;;23.30;;
21777;SDS011;11050;52.222;20.916;2023-07-02T02:16:30;32.28;;;22.33;;
21777;SDS011;11050;52.222;20.916;2023-07-02T02:18:55;31.73;;;21.95;;
21777;SDS011;11050;52.222;20.916;2023-07-02T02:21:21;31.15;;;21.60;;
21777;SDS011;11050;52.222;20.916;2023-07-02T02:23:47;30.50;;;21.55;;
21777;SDS011;11050;52.222;20.916;2023-07-02T02:26:14;31.70;;;22.13;;
21777;SDS011;11050;52.222;20.916;2023-07-02T02:28:40;33.45;;;21.95;;
21777;SDS011;11050;52.222;20.916;2023-07-02T02:31:07;33.05;;;21.95;;
21777;SDS011;11050;52.222;20.916;2023-07-02T02:33:34;27.65;;;20.75;;
21777;SDS011;11050;52.222;20.916;2023-07-02T02:36:00;31.42;;;22.58;;
21777;SDS011;11050;52.222;20.916;2023-07-02T02:38:27;31.60;;;22.98;;
21777;SDS011;11050;52.222;20.916;2023-07-02T02:40:53;29.35;;;21.95;;
21777;SDS011;11050;52.222;20.916;2023-07-02T02:43:18;31.83;;;22.13;;
21777;SDS011;11050;52.222;20.916;2023-07-02T02:45:45;32.20;;;21.33;;
21777;SDS011;11050;52.222;20.916;2023-07-02T02:48:12;30.38;;;20.92;;
21777;SDS011;11050;52.222;20.916;2023-07-02T02:50:37;29.40;;;21.70;;
21777;SDS011;11050;52.222;20.916;2023-07-02T02:53:06;31.05;;;21.30;;
21777;SDS011;11050;52.222;20.916;2023-07-02T02:55:33;30.30;;;20.42;;
21777;SDS011;11050;52.222;20.916;2023-07-02T02:57:59;29.48;;;20.30;;
21777;SDS011;11050;52.222;20.916;2023-07-02T03:00:25;26.42;;;19.85;;
21777;SDS011;11050;52.222;20.916;2023-07-02T03:02:50;27.67;;;19.65;;
21777;SDS011;11050;52.222;20.916;2023-07-02T03:05:16;26.98;;;19.42;;
21777;SDS011;11050;52.222;20.916;2023-07-02T03:07:42;31.98;;;20.50;;
21777;SDS011;11050;52.222;20.916;2023-07-02T03:10:08;32.63;;;20.02;;
21777;SDS011;11050;52.222;20.916;2023-07-02T03:12:34;28.20;;;19.95;;
21777;SDS011;11050;52.222;20.916;2023-07-02T03:15:00;26.65;;;18.90;;
21777;SDS011;11050;52.222;20.916;2023-07-02T03:17:26;27.42;;;20.25;;
21777;SDS011;11050;52.222;20.916;2023-07-02T03:19:51;25.60;;;18.60;;
21777;SDS011;11050;52.222;20.916;2023-07-02T03:22:17;23.55;;;17.95;;
21777;SDS011;11050;52.222;20.916;2023-07-02T03:24:43;24.40;;;18.00;;
21777;SDS011;11050;52.222;20.916;2023-07-02T03:27:08;25.08;;;18.02;;
21777;SDS011;11050;52.222;20.916;2023-07-02T03:29:34;25.13;;;17.83;;
21777;SDS011;11050;52.222;20.916;2023-07-02T03:32:01;24.48;;;17.30;;
21777;SDS011;11050;52.222;20.916;2023-07-02T03:34:27;24.25;;;17.05;;
21777;SDS011;11050;52.222;20.916;2023-07-02T03:36:53;24.25;;;17.35;;
21777;SDS011;11050;52.222;20.916;2023-07-02T03:39:18;21.67;;;17.48;;
21777;SDS011;11050;52.222;20.916;2023-07-02T03:41:44;20.33;;;16.10;;
21777;SDS011;11050;52.222;20.916;2023-07-02T03:44:10;21.50;;;16.58;;
21777;SDS011;11050;52.222;20.916;2023-07-02T03:46:36;24.17;;;17.75;;
21777;SDS011;11050;52.222;20.916;2023-07-02T03:49:02;21.95;;;16.17;;
21777;SDS011;11050;52.222;20.916;2023-07-02T03:51:28;20.95;;;16.30;;
21777;SDS011;11050;52.222;20.916;2023-07-02T03:53:55;22.02;;;15.95;;
21777;SDS011;11050;52.222;20.916;2023-07-02T03:56:20;22.02;;;16.15;;
21777;SDS011;11050;52.222;20.916;2023-07-02T03:58:46;22.50;;;15.85;;
21777;SDS011;11050;52.222;20.916;2023-07-02T04:01:12;20.13;;;15.73;;
21777;SDS011;11050;52.222;20.916;2023-07-02T04:03:38;20.55;;;15.25;;
21777;SDS011;11050;52.222;20.916;2023-07-02T04:06:04;20.75;;;15.65;;
21777;SDS011;11050;52.222;20.916;2023-07-02T04:08:32;21.52;;;15.88;;
21777;SDS011;11050;52.222;20.916;2023-07-02T04:10:59;20.48;;;15.93;;
21777;SDS011;11050;52.222;20.916;2023-07-02T04:13:24;20.60;;;15.35;;
21777;SDS011;11050;52.222;20.916;2023-07-02T04:15:50;20.92;;;14.52;;
21777;SDS011;11050;52.222;20.916;2023-07-02T04:18:16;20.13;;;14.75;;
21777;SDS011;11050;52.222;20.916;2023-07-02T04:20:42;17.80;;;14.40;;
21777;SDS011;11050;52.222;20.916;2023-07-02T04:23:07;18.25;;;13.85;;
21777;SDS011;11050;52.222;20.916;2023-07-02T04:25:33;19.90;;;14.02;;
21777;SDS011;11050;52.222;20.916;2023-07-02T04:27:59;19.60;;;14.38;;
21777;SDS011;11050;52.222;20.916;2023-07-02T04:30:25;18.67;;;14.15;;
21777;SDS011;11050;52.222;20.916;2023-07-02T04:32:51;18.48;;;14.35;;
21777;SDS011;11050;52.222;20.916;2023-07-02T04:35:17;16.58;;;13.32;;
21777;SDS011;11050;52.222;20.916;2023-07-02T04:37:43;17.60;;;13.93;;
21777;SDS011;11050;52.222;20.916;2023-07-02T04:40:09;18.98;;;13.82;;
21777;SDS011;11050;52.222;20.916;2023-07-02T04:42:39;16.63;;;12.38;;
21777;SDS011;11050;52.222;20.916;2023-07-02T04:45:12;17.10;;;13.10;;
21777;SDS011;11050;52.222;20.916;2023-07-02T04:47:44;15.90;;;13.18;;
21777;SDS011;11050;52.222;20.916;2023-07-02T04:50:10;15.63;;;12.60;;
21777;SDS011;11050;52.222;20.916;2023-07-02T04:52:37;16.90;;;12.05;;
21777;SDS011;11050;52.222;20.916;2023-07-02T04:55:04;12.80;;;10.88;;
21777;SDS011;11050;52.222;20.916;2023-07-02T04:57:30;16.52;;;11.85;;
21777;SDS011;11050;52.222;20.916;2023-07-02T04:59:56;13.90;;;10.85;;
21777;SDS011;11050;52.222;20.916;2023-07-02T05:02:22;15.73;;;11.38;;
21777;SDS011;11050;52.222;20.916;2023-07-02T05:04:47;12.73;;;10.93;;
21777;SDS011;11050;52.222;20.916;2023-07-02T05:07:13;12.55;;;10.25;;
21777;SDS011;11050;52.222;20.916;2023-07-02T05:09:40;13.18;;;9.90;;
21777;SDS011;11050;52.222;20.916;2023-07-02T05:12:06;13.73;;;9.98;;
21777;SDS011;11050;52.222;20.916;2023-07-02T05:14:32;12.02;;;9.82;;
21777;SDS011;11050;52.222;20.916;2023-07-02T05:16:57;14.82;;;9.05;;
21777;SDS011;11050;52.222;20.916;2023-07-02T05:19:23;16.05;;;9.55;;
21777;SDS011;11050;52.222;20.916;2023-07-02T05:21:49;13.07;;;9.32;;
21777;SDS011;11050;52.222;20.916;2023-07-02T05:24:14;13.30;;;9.55;;
21777;SDS011;11050;52.222;20.916;2023-07-02T05:26:40;12.57;;;9.10;;
21777;SDS011;11050;52.222;20.916;2023-07-02T05:29:06;13.48;;;8.82;;
21777;SDS011;11050;52.222;20.916;2023-07-02T05:31:32;10.88;;;8.57;;
21777;SDS011;11050;52.222;20.916;2023-07-02T05:33:59;14.20;;;10.00;;
21777;SDS011;11050;52.222;20.916;2023-07-02T05:36:24;14.07;;;9.63;;
21777;SDS011;11050;52.222;20.916;2023-07-02T05:38:50;15.13;;;9.25;;
21777;SDS011;11050;52.222;20.916;2023-07-02T05:41:19;11.32;;;8.98;;
21777;SDS011;11050;52.222;20.916;2023-07-02T05:43:45;12.07;;;8.73;;
21777;SDS011;11050;52.222;20.916;2023-07-02T05:46:11;15.02;;;8.43;;
21777;SDS011;11050;52.222;20.916;2023-07-02T05:48:39;11.35;;;8.82;;
21777;SDS011;11050;52.222;20.916;2023-07-02T05:51:06;14.63;;;8.88;;
21777;SDS011;11050;52.222;20.916;2023-07-02T05:53:32;12.85;;;8.65;;
21777;SDS011;11050;52.222;20.916;2023-07-02T05:55:59;12.05;;;8.70;;
21777;SDS011;11050;52.222;20.916;2023-07-02T05:58:24;15.43;;;8.65;;
21777;SDS011;11050;52.222;20.916;2023-07-02T06:00:50;14.93;;;9.77;;
21777;SDS011;11050;52.222;20.916;2023-07-02T06:03:16;11.55;;;8.23;;
21777;SDS011;11050;52.222;20.916;2023-07-02T06:05:49;12.60;;;8.85;;
21777;SDS011;11050;52.222;20.916;2023-07-02T06:08:16;12.25;;;9.48;;
21777;SDS011;11050;52.222;20.916;2023-07-02T06:10:43;14.30;;;8.85;;
21777;SDS011;11050;52.222;20.916;2023-07-02T06:13:12;12.18;;;8.45;;
21777;SDS011;11050;52.222;20.916;2023-07-02T06:15:38;15.80;;;9.05;;
21777;SDS011;11050;52.222;20.916;2023-07-02T06:18:05;11.45;;;8.90;;
21777;SDS011;11050;52.222;20.916;2023-07-02T06:20:30;14.02;;;8.30;;
21777;SDS011;11050;52.222;20.916;2023-07-02T06:22:56;13.13;;;9.00;;
21777;SDS011;11050;52.222;20.916;2023-07-02T06:25:22;10.45;;;8.35;;
21777;SDS011;11050;52.222;20.916;2023-07-02T06:27:47;13.27;;;8.70;;
21777;SDS011;11050;52.222;20.916;2023-07-02T06:30:13;12.30;;;9.57;;
21777;SDS011;11050;52.222;20.916;2023-07-02T06:32:39;12.10;;;8.68;;
21777;SDS011;11050;52.222;20.916;2023-07-02T06:35:05;14.18;;;8.32;;
21777;SDS011;11050;52.222;20.916;2023-07-02T06:37:32;12.00;;;9.07;;
21777;SDS011;11050;52.222;20.916;2023-07-02T06:39:58;13.50;;;8.73;;
21777;SDS011;11050;52.222;20.916;2023-07-02T06:42:24;14.45;;;9.00;;
21777;SDS011;11050;52.222;20.916;2023-07-02T06:44:50;12.27;;;8.75;;
21777;SDS011;11050;52.222;20.916;2023-07-02T06:47:16;10.95;;;8.55;;
21777;SDS011;11050;52.222;20.916;2023-07-02T06:49:42;9.77;;;8.18;;
21777;SDS011;11050;52.222;20.916;2023-07-02T06:52:08;13.70;;;8.45;;
21777;SDS011;11050;52.222;20.916;2023-07-02T06:54:34;14.73;;;8.10;;
21777;SDS011;11050;52.222;20.916;2023-07-02T06:57:00;13.85;;;9.43;;
21777;SDS011;11050;52.222;20.916;2023-07-02T06:59:26;11.27;;;7.38;;
21777;SDS011;11050;52.222;20.916;2023-07-02T07:01:52;9.00;;;7.32;;
21777;SDS011;11050;52.222;20.916;2023-07-02T07:04:18;12.75;;;7.03;;
21777;SDS011;11050;52.222;20.916;2023-07-02T07:06:43;9.52;;;7.57;;
21777;SDS011;11050;52.222;20.916;2023-07-02T07:09:09;12.07;;;7.90;;
21777;SDS011;11050;52.222;20.916;2023-07-02T07:11:35;13.10;;;7.07;;
21777;SDS011;11050;52.222;20.916;2023-07-02T07:14:01;11.27;;;7.22;;
21777;SDS011;11050;52.222;20.916;2023-07-02T07:16:27;11.68;;;6.80;;
21777;SDS011;11050;52.222;20.916;2023-07-02T07:18:53;9.57;;;7.45;;
21777;SDS011;11050;52.222;20.916;2023-07-02T07:21:18;9.00;;;7.15;;
21777;SDS011;11050;52.222;20.916;2023-07-02T07:23:45;9.95;;;7.60;;
21777;SDS011;11050;52.222;20.916;2023-07-02T07:26:10;9.80;;;7.63;;
21777;SDS011;11050;52.222;20.916;2023-07-02T07:28:36;10.45;;;7.35;;
21777;SDS011;11050;52.222;20.916;2023-07-02T07:31:02;8.48;;;7.03;;
21777;SDS011;11050;52.222;20.916;2023-07-02T07:33:28;11.30;;;7.47;;
21777;SDS011;11050;52.222;20.916;2023-07-02T07:35:53;9.50;;;6.57;;
21777;SDS011;11050;52.222;20.916;2023-07-02T07:38:19;9.55;;;6.53;;
21777;SDS011;11050;52.222;20.916;2023-07-02T07:40:45;8.65;;;6.47;;
21777;SDS011;11050;52.222;20.916;2023-07-02T07:43:10;7.70;;;5.80;;
21777;SDS011;11050;52.222;20.916;2023-07-02T07:45:36;7.53;;;6.10;;
21777;SDS011;11050;52.222;20.916;2023-07-02T07:48:03;7.38;;;5.93;;
21777;SDS011;11050;52.222;20.916;2023-07-02T07:50:30;7.60;;;4.82;;
21777;SDS011;11050;52.222;20.916;2023-07-02T07:52:56;7.55;;;5.63;;
21777;SDS011;11050;52.222;20.916;2023-07-02T07:55:21;8.27;;;5.60;;
21777;SDS011;11050;52.222;20.916;2023-07-02T07:57:47;7.65;;;5.80;;
21777;SDS011;11050;52.222;20.916;2023-07-02T08:00:13;9.73;;;5.47;;
21777;SDS011;11050;52.222;20.916;2023-07-02T08:02:39;8.65;;;6.38;;
21777;SDS011;11050;52.222;20.916;2023-07-02T08:05:05;9.57;;;6.10;;
21777;SDS011;11050;52.222;20.916;2023-07-02T08:07:32;6.80;;;5.45;;
21777;SDS011;11050;52.222;20.916;2023-07-02T08:09:58;6.32;;;5.20;;
21777;SDS011;11050;52.222;20.916;2023-07-02T08:12:25;10.05;;;5.50;;
21777;SDS011;11050;52.222;20.916;2023-07-02T08:14:54;7.68;;;5.80;;
21777;SDS011;11050;52.222;20.916;2023-07-02T08:17:21;5.82;;;4.75;;
21777;SDS011;11050;52.222;20.916;2023-07-02T08:19:47;10.40;;;5.20;;
21777;SDS011;11050;52.222;20.916;2023-07-02T08:22:12;7.25;;;5.90;;
21777;SDS011;11050;52.222;20.916;2023-07-02T08:24:38;10.50;;;6.00;;
21777;SDS011;11050;52.222;20.916;2023-07-02T08:27:04;7.78;;;5.78;;
21777;SDS011;11050;52.222;20.916;2023-07-02T08:29:31;7.22;;;5.80;;
21777;SDS011;11050;52.222;20.916;2023-07-02T08:31:57;9.43;;;6.05;;
21777;SDS011;11050;52.222;20.916;2023-07-02T08:34:23;7.28;;;5.38;;
21777;SDS011;11050;52.222;20.916;2023-07-02T08:36:49;7.22;;;4.97;;
21777;SDS011;11050;52.222;20.916;2023-07-02T08:39:16;8.38;;;5.53;;
21777;SDS011;11050;52.222;20.916;2023-07-02T08:41:46;14.73;;;6.18;;
21777;SDS011;11050;52.222;20.916;2023-07-02T08:44:13;9.18;;;5.78;;
21777;SDS011;11050;52.222;20.916;2023-07-02T08:46:44;5.75;;;5.15;;
21777;SDS011;11050;52.222;20.916;2023-07-02T08:49:10;4.85;;;4.30;;
21777;SDS011;11050;52.222;20.916;2023-07-02T08:51:36;9.00;;;4.57;;
21777;SDS011;11050;52.222;20.916;2023-07-02T08:54:02;4.60;;;4.05;;
21777;SDS011;11050;52.222;20.916;2023-07-02T08:56:29;4.95;;;3.97;;
21777;SDS011;11050;52.222;20.916;2023-07-02T08:58:55;4.25;;;3.85;;
21777;SDS011;11050;52.222;20.916;2023-07-02T09:01:21;9.55;;;4.00;;
21777;SDS011;11050;52.222;20.916;2023-07-02T09:03:48;7.13;;;4.82;;
21777;SDS011;11050;52.222;20.916;2023-07-02T09:06:16;5.80;;;4.93;;
21777;SDS011;11050;52.222;20.916;2023-07-02T09:08:43;6.00;;;4.65;;
21777;SDS011;11050;52.222;20.916;2023-07-02T09:11:10;6.05;;;5.05;;
21777;SDS011;11050;52.222;20.916;2023-07-02T09:16:25;6.28;;;5.10;;
21777;SDS011;11050;52.222;20.916;2023-07-02T09:19:07;5.78;;;5.28;;
21777;SDS011;11050;52.222;20.916;2023-07-02T09:21:41;6.03;;;4.85;;
21777;SDS011;11050;52.222;20.916;2023-07-02T09:26:48;5.93;;;4.60;;
21777;SDS011;11050;52.222;20.916;2023-07-02T09:31:59;5.38;;;4.70;;
21777;SDS011;11050;52.222;20.916;2023-07-02T09:34:33;5.55;;;4.10;;
21777;SDS011;11050;52.222;20.916;2023-07-02T09:37:01;5.13;;;4.72;;
21777;SDS011;11050;52.222;20.916;2023-07-02T09:39:30;5.35;;;4.45;;
21777;SDS011;11050;52.222;20.916;2023-07-02T09:41:59;7.40;;;4.53;;
21777;SDS011;11050;52.222;20.916;2023-07-02T09:44:30;4.88;;;4.38;;
21777;SDS011;11050;52.222;20.916;2023-07-02T09:47:01;5.63;;;4.07;;
21777;SDS011;11050;52.222;20.916;2023-07-02T09:49:31;5.43;;;4.00;;
21777;SDS011;11050;52.222;20.916;2023-07-02T09:52:07;4.28;;;3.65;;
21777;SDS011;11050;52.222;20.916;2023-07-02T09:54:35;3.90;;;3.60;;
21777;SDS011;11050;52.222;20.916;2023-07-02T09:57:03;7.25;;;3.75;;
21777;SDS011;11050;52.222;20.916;2023-07-02T09:59:31;4.20;;;3.72;;
21777;SDS011;11050;52.222;20.916;2023-07-02T10:01:57;5.35;;;3.30;;
21777;SDS011;11050;52.222;20.916;2023-07-02T10:04:23;5.75;;;3.40;;
21777;SDS011;11050;52.222;20.916;2023-07-02T10:06:50;3.45;;;3.05;;
21777;SDS011;11050;52.222;20.916;2023-07-02T10:09:34;3.05;;;2.60;;
21777;SDS011;11050;52.222;20.916;2023-07-02T10:12:18;2.50;;;2.30;;
21777;SDS011;11050;52.222;20.916;2023-07-02T10:14:48;4.97;;;2.85;;
21777;SDS011;11050;52.222;20.916;2023-07-02T10:17:23;4.38;;;3.15;;
21777;SDS011;11050;52.222;20.916;2023-07-02T10:19:56;3.15;;;2.78;;
21777;SDS011;11050;52.222;20.916;2023-07-02T10:22:25;5.40;;;2.92;;
21777;SDS011;11050;52.222;20.916;2023-07-02T10:27:34;3.28;;;3.00;;
21777;SDS011;11050;52.222;20.916;2023-07-02T10:30:03;6.20;;;3.20;;
21777;SDS011;11050;52.222;20.916;2023-07-02T10:32:32;2.97;;;2.67;;
21777;SDS011;11050;52.222;20.916;2023-07-02T10:35:00;3.03;;;2.83;;
21777;SDS011;11050;52.222;20.916;2023-07-02T10:37:35;2.78;;;2.50;;
21777;SDS011;11050;52.222;20.916;2023-07-02T10:40:05;4.65;;;2.75;;
21777;SDS011;11050;52.222;20.916;2023-07-02T10:42:33;3.08;;;2.75;;
21777;SDS011;11050;52.222;20.916;2023-07-02T10:45:09;3.70;;;2.65;;
21777;SDS011;11050;52.222;20.916;2023-07-02T10:47:35;3.47;;;3.17;;
21777;SDS011;11050;52.222;20.916;2023-07-02T10:50:15;3.60;;;2.95;;
21777;SDS011;11050;52.222;20.916;2023-07-02T10:52:46;3.25;;;2.90;;
21777;SDS011;11050;52.222;20.916;2023-07-02T10:55:22;5.95;;;3.50;;
21777;SDS011;11050;52.222;20.916;2023-07-02T10:57:50;3.58;;;3.28;;
21777;SDS011;11050;52.222;20.916;2023-07-02T11:00:28;3.05;;;2.85;;
21777;SDS011;11050;52.222;20.916;2023-07-02T11:02:54;3.40;;;3.10;;
21777;SDS011;11050;52.222;20.916;2023-07-02T11:05:20;3.50;;;3.20;;
21777;SDS011;11050;52.222;20.916;2023-07-02T11:07:46;5.25;;;3.50;;
21777;SDS011;11050;52.222;20.916;2023-07-02T11:10:17;3.00;;;2.58;;
21777;SDS011;11050;52.222;20.916;2023-07-02T11:12:44;3.88;;;3.30;;
21777;SDS011;11050;52.222;20.916;2023-07-02T11:15:10;6.90;;;3.65;;
21777;SDS011;11050;52.222;20.916;2023-07-02T11:17:38;6.22;;;3.47;;
21777;SDS011;11050;52.222;20.916;2023-07-02T11:20:08;5.68;;;3.50;;
21777;SDS011;11050;52.222;20.916;2023-07-02T11:22:35;4.40;;;3.53;;
21777;SDS011;11050;52.222;20.916;2023-07-02T11:25:09;3.80;;;3.40;;
21777;SDS011;11050;52.222;20.916;2023-07-02T11:27:37;3.53;;;3.22;;
21777;SDS011;11050;52.222;20.916;2023-07-02T11:30:03;6.38;;;2.90;;
21777;SDS011;11050;52.222;20.916;2023-07-02T11:32:30;4.57;;;2.88;;
21777;SDS011;11050;52.222;20.916;2023-07-02T11:34:55;2.63;;;2.42;;
21777;SDS011;11050;52.222;20.916;2023-07-02T11:37:21;3.83;;;2.67;;
21777;SDS011;11050;52.222;20.916;2023-07-02T11:39:47;2.90;;;2.70;;
21777;SDS011;11050;52.222;20.916;2023-07-02T11:42:13;2.67;;;2.47;;
21777;SDS011;11050;52.222;20.916;2023-07-02T11:44:40;2.90;;;2.70;;
21777;SDS011;11050;52.222;20.916;2023-07-02T11:47:06;3.83;;;2.92;;
21777;SDS011;11050;52.222;20.916;2023-07-02T11:49:31;3.10;;;2.80;;
21777;SDS011;11050;52.222;20.916;2023-07-02T11:51:57;4.07;;;3.03;;
21777;SDS011;11050;52.222;20.916;2023-07-02T11:54:23;3.38;;;3.08;;
21777;SDS011;11050;52.222;20.916;2023-07-02T11:56:48;2.85;;;2.55;;
21777;SDS011;11050;52.222;20.916;2023-07-02T11:59:14;5.82;;;3.40;;
21777;SDS011;11050;52.222;20.916;2023-07-02T12:01:40;4.47;;;3.20;;
21777;SDS011;11050;52.222;20.916;2023-07-02T12:04:05;3.10;;;2.80;;
21777;SDS011;11050;52.222;20.916;2023-07-02T12:06:32;3.67;;;3.00;;
21777;SDS011;11050;52.222;20.916;2023-07-02T12:08:59;4.75;;;3.17;;
21777;SDS011;11050;52.222;20.916;2023-07-02T12:11:24;3.70;;;3.03;;
21777;SDS011;11050;52.222;20.916;2023-07-02T12:13:50;3.15;;;2.90;;
21777;SDS011;11050;52.222;20.916;2023-07-02T12:16:15;3.25;;;2.95;;
21777;SDS011;11050;52.222;20.916;2023-07-02T12:18:41;4.75;;;2.70;;
21777;SDS011;11050;52.222;20.916;2023-07-02T12:21:07;2.67;;;2.47;;
21777;SDS011;11050;52.222;20.916;2023-07-02T12:23:32;4.72;;;2.28;;
21777;SDS011;11050;52.222;20.916;2023-07-02T12:25:58;4.63;;;2.25;;
21777;SDS011;11050;52.222;20.916;2023-07-02T12:28:24;4.45;;;2.38;;
21777;SDS011;11050;52.222;20.916;2023-07-02T12:30:49;3.55;;;2.40;;
21777;SDS011;11050;52.222;20.916;2023-07-02T12:33:15;4.30;;;2.08;;
21777;SDS011;11050;52.222;20.916;2023-07-02T12:35:41;3.35;;;2.15;;
21777;SDS011;11050;52.222;20.916;2023-07-02T12:38:06;2.17;;;1.98;;
21777;SDS011;11050;52.222;20.916;2023-07-02T12:40:33;4.15;;;2.08;;
21777;SDS011;11050;52.222;20.916;2023-07-02T12:42:59;2.95;;;1.90;;
21777;SDS011;11050;52.222;20.916;2023-07-02T12:45:25;5.70;;;2.20;;
21777;SDS011;11050;52.222;20.916;2023-07-02T12:47:51;4.00;;;1.80;;
21777;SDS011;11050;52.222;20.916;2023-07-02T12:50:16;2.92;;;1.83;;
21777;SDS011;11050;52.222;20.916;2023-07-02T12:52:42;3.53;;;1.88;;
21777;SDS011;11050;52.222;20.916;2023-07-02T12:55:08;7.40;;;2.13;;
21777;SDS011;11050;52.222;20.916;2023-07-02T12:57:34;5.35;;;1.83;;
21777;SDS011;11050;52.222;20.916;2023-07-02T13:00:00;2.35;;;1.95;;
21777;SDS011;11050;52.222;20.916;2023-07-02T13:02:25;2.10;;;1.90;;
21777;SDS011;11050;52.222;20.916;2023-07-02T13:04:51;6.63;;;2.15;;
21777;SDS011;11050;52.222;20.916;2023-07-02T13:07:17;4.72;;;2.10;;
21777;SDS011;11050;52.222;20.916;2023-07-02T13:09:43;5.65;;;2.22;;
21777;SDS011;11050;52.222;20.916;2023-07-02T13:12:10;4.00;;;2.30;;
21777;SDS011;11050;52.222;20.916;2023-07-02T13:14:36;5.55;;;2.20;;
21777;SDS011;11050;52.222;20.916;2023-07-02T13:17:02;5.05;;;1.90;;
21777;SDS011;11050;52.222;20.916;2023-07-02T13:19:30;4.38;;;1.98;;
21777;SDS011;11050;52.222;20.916;2023-07-02T13:21:57;2.90;;;2.08;;
21777;SDS011;11050;52.222;20.916;2023-07-02T13:24:22;2.28;;;1.85;;
21777;SDS011;11050;52.222;20.916;2023-07-02T13:26:48;3.40;;;1.75;;
21777;SDS011;11050;52.222;20.916;2023-07-02T13:29:14;2.42;;;2.08;;
21777;SDS011;11050;52.222;20.916;2023-07-02T13:31:40;3.47;;;1.85;;
21777;SDS011;11050;52.222;20.916;2023-07-02T13:34:05;3.10;;;1.95;;
21777;SDS011;11050;52.222;20.916;2023-07-02T13:36:31;3.75;;;2.15;;
21777;SDS011;11050;52.222;20.916;2023-07-02T13:38:57;6.65;;;2.17;;
21777;SDS011;11050;52.222;20.916;2023-07-02T13:41:23;2.65;;;1.90;;
21777;SDS011;11050;52.222;20.916;2023-07-02T13:43:48;2.85;;;1.92;;
21777;SDS011;11050;52.222;20.916;2023-07-02T13:46:14;5.05;;;2.42;;
21777;SDS011;11050;52.222;20.916;2023-07-02T13:48:40;3.63;;;2.10;;
21777;SDS011;11050;52.222;20.916;2023-07-02T13:51:06;4.90;;;2.20;;
21777;SDS011;11050;52.222;20.916;2023-07-02T13:53:33;3.67;;;2.35;;
21777;SDS011;11050;52.222;20.916;2023-07-02T13:55:59;2.75;;;2.15;;
21777;SDS011;11050;52.222;20.916;2023-07-02T13:58:25;3.10;;;2.25;;
21777;SDS011;11050;52.222;20.916;2023-07-02T14:00:50;4.72;;;1.90;;
21777;SDS011;11050;52.222;20.916;2023-07-02T14:03:16;2.25;;;2.05;;
21777;SDS011;11050;52.222;20.916;2023-07-02T14:05:42;4.43;;;1.90;;
21777;SDS011;11050;52.222;20.916;2023-07-02T14:08:08;2.58;;;1.98;;
21777;SDS011;11050;52.222;20.916;2023-07-02T14:10:35;2.30;;;2.10;;
21777;SDS011;11050;52.222;20.916;2023-07-02T14:13:00;4.35;;;2.08;;
21777;SDS011;11050;52.222;20.916;2023-07-02T14:15:26;4.80;;;2.10;;
21777;SDS011;11050;52.222;20.916;2023-07-02T14:17:52;3.42;;;1.90;;
21777;SDS011;11050;52.222;20.916;2023-07-02T14:20:19;3.00;;;1.70;;
21777;SDS011;11050;52.222;20.916;2023-07-02T14:22:45;2.45;;;2.17;;
21777;SDS011;11050;52.222;20.916;2023-07-02T14:25:11;4.65;;;2.00;;
21777;SDS011;11050;52.222;20.916;2023-07-02T14:27:37;2.50;;;2.25;;
21777;SDS011;11050;52.222;20.916;2023-07-02T14:30:03;2.70;;;2.28;;
21777;SDS011;11050;52.222;20.916;2023-07-02T14:32:32;3.00;;;2.05;;
21777;SDS011;11050;52.222;20.916;2023-07-02T14:35:00;2.33;;;1.90;;
21777;SDS011;11050;52.222;20.916;2023-07-02T14:37:27;3.20;;;2.20;;
21777;SDS011;11050;52.222;20.916;2023-07-02T14:39:53;3.78;;;1.90;;